Union Hill, Illinois
Current Conditions -  °F | °C
As of 12:35 PM on Saturday 25 Oct 2014 (Local Time) from KIKK Reporting Station
Clear Clear  
Wind Chill: 69°   Ceiling: Unl
Heat Index: 69°   Visibility: 10mi
Dew Point: 53°   Wind: 9mph
Humidity: 57%   Direction: 300°WNW
Pressure: 29.97"   Gusts: 16mph
Location:  41.11°N, 88.15°W
Report Text: KIKK 251735Z AUTO 30008G14KT 10SM CLR 21/12 A2997 RMK AO2 T02050116
Loading
Personal Weather Stations






























Interactive Weather Map
Tropical Storm Tracking
New forecast layout! Learn more

10-Day Weather Forecast

Advertisements
Track Severe Weather on mobile